createdAt,value
2022-10-14T00:00:01.874Z,72.81
2022-10-14T00:03:00.757Z,72.53
2022-10-14T00:05:29.983Z,72.79
2022-10-14T00:07:59.306Z,73.62
2022-10-14T00:10:28.389Z,73.53
2022-10-14T00:12:57.409Z,73.17
2022-10-14T00:15:28.682Z,73.16
2022-10-14T00:17:57.743Z,73.13
2022-10-14T00:20:29.776Z,73.01
2022-10-14T00:22:59.035Z,73.00
2022-10-14T00:25:28.493Z,72.36
2022-10-14T00:27:57.543Z,73.12
2022-10-14T00:30:28.175Z,72.81
2022-10-14T00:33:00.048Z,72.75
2022-10-14T00:35:29.544Z,73.19
2022-10-14T00:37:59.169Z,72.49
2022-10-14T00:40:28.719Z,73.12
2022-10-14T00:42:57.946Z,73.19
2022-10-14T00:45:28.396Z,73.77
2022-10-14T00:47:57.779Z,73.44
2022-10-14T00:50:27.285Z,73.34
2022-10-14T00:52:56.389Z,73.00
2022-10-14T00:55:26.335Z,73.45
2022-10-14T00:57:55.710Z,73.25
2022-10-14T01:00:24.995Z,73.08
2022-10-14T01:02:58.066Z,73.76
2022-10-14T01:05:33.522Z,73.64
2022-10-14T01:08:08.261Z,73.87
2022-10-14T01:10:44.883Z,73.80
2022-10-14T01:13:23.545Z,73.22
2022-10-14T01:16:05.068Z,73.57
2022-10-14T01:18:59.884Z,73.36
2022-10-14T01:21:35.722Z,73.59
2022-10-14T01:24:32.122Z,74.20
2022-10-14T01:27:37.522Z,74.25
2022-10-14T01:30:16.030Z,74.16
2022-10-14T01:33:07.190Z,74.22
2022-10-14T01:35:52.167Z,74.04
2022-10-14T01:38:28.406Z,74.17
2022-10-14T01:41:07.186Z,73.23
2022-10-14T01:43:38.389Z,73.53
2022-10-14T01:46:09.269Z,74.41
2022-10-14T01:48:46.723Z,74.19
2022-10-14T01:51:24.047Z,75.19
2022-10-14T01:53:57.938Z,74.67
2022-10-14T01:56:29.022Z,75.10
2022-10-14T01:59:01.754Z,75.63
2022-10-14T02:01:36.693Z,74.98
2022-10-14T02:04:17.232Z,74.84
2022-10-14T02:06:51.290Z,74.85
2022-10-14T02:09:29.578Z,75.00
2022-10-14T02:12:10.332Z,74.99
2022-10-14T02:14:45.618Z,74.70
2022-10-14T02:17:22.374Z,74.03
2022-10-14T02:19:56.582Z,74.74
2022-10-14T02:22:32.790Z,74.50
2022-10-14T02:25:10.648Z,74.42
2022-10-14T02:27:41.239Z,74.97
2022-10-14T02:35:27.215Z,74.69
2022-10-14T02:37:59.094Z,74.68
2022-10-14T02:40:34.709Z,74.71
2022-10-14T02:43:04.135Z,74.39
2022-10-14T02:45:36.041Z,74.40
2022-10-14T02:48:05.585Z,74.03
2022-10-14T02:50:36.182Z,73.99
2022-10-14T02:53:05.281Z,73.78
2022-10-14T02:55:34.620Z,74.12
2022-10-14T02:58:04.083Z,73.62
2022-10-14T03:00:33.372Z,73.75
2022-10-14T03:03:03.267Z,74.10
2022-10-14T03:05:33.487Z,73.42
2022-10-14T03:08:05.870Z,73.96
2022-10-14T03:10:36.178Z,73.99
2022-10-14T03:13:05.543Z,74.30
2022-10-14T03:15:40.446Z,73.92
2022-10-14T03:18:11.988Z,73.58
2022-10-14T03:20:47.502Z,74.17
2022-10-14T03:23:26.367Z,73.49
2022-10-14T03:25:56.684Z,73.14
2022-10-14T03:28:33.557Z,74.03
2022-10-14T03:31:10.749Z,74.29
2022-10-14T03:33:56.089Z,73.96
2022-10-14T03:36:25.744Z,73.69
2022-10-14T03:38:59.218Z,74.65
2022-10-14T03:41:38.377Z,74.13
2022-10-14T03:44:09.245Z,73.72
2022-10-14T03:46:40.756Z,74.29
2022-10-14T03:49:09.993Z,74.21
2022-10-14T03:51:39.243Z,73.80
2022-10-14T03:54:21.555Z,74.26
2022-10-14T03:56:51.366Z,74.02
2022-10-14T03:59:22.402Z,74.88
2022-10-14T04:01:54.514Z,74.17
2022-10-14T04:04:27.044Z,73.94
2022-10-14T04:06:57.796Z,74.55
2022-10-14T04:09:29.346Z,74.81
2022-10-14T04:11:58.623Z,75.24
2022-10-14T04:14:44.809Z,75.55
2022-10-14T04:17:14.891Z,75.19
2022-10-14T04:19:45.660Z,75.11
2022-10-14T04:22:17.840Z,76.07
2022-10-14T04:24:53.326Z,75.52
2022-10-14T04:27:22.746Z,75.19
2022-10-14T04:30:02.568Z,76.11
2022-10-14T04:32:41.386Z,75.88
2022-10-14T04:35:11.243Z,75.52
2022-10-14T04:37:44.872Z,76.21
2022-10-14T04:40:25.748Z,75.32
2022-10-14T04:43:00.082Z,76.01
2022-10-14T04:45:34.890Z,76.79
2022-10-14T04:48:06.144Z,77.54
2022-10-14T04:50:40.764Z,76.85
2022-10-14T04:53:37.257Z,76.22
2022-10-14T04:56:18.608Z,76.75
2022-10-14T04:58:57.108Z,76.86
2022-10-14T05:01:36.422Z,77.13
2022-10-14T05:04:06.451Z,76.57
2022-10-14T05:06:39.486Z,76.82
2022-10-14T05:09:10.930Z,76.40
2022-10-14T05:11:41.738Z,76.34
2022-10-14T05:14:13.363Z,76.53
2022-10-14T05:16:44.833Z,77.08
2022-10-14T05:19:14.437Z,76.27
2022-10-14T05:21:51.603Z,76.50
2022-10-14T05:24:29.221Z,76.83
2022-10-14T05:26:59.890Z,76.33
2022-10-14T05:29:31.488Z,76.65
2022-10-14T05:32:01.867Z,76.84
2022-10-14T05:34:39.527Z,77.09
2022-10-14T05:37:12.090Z,76.30
2022-10-14T05:39:47.599Z,77.54
2022-10-14T05:42:22.544Z,76.66
2022-10-14T05:44:54.788Z,76.01
2022-10-14T05:47:25.995Z,76.47
2022-10-14T05:50:03.158Z,76.83
2022-10-14T05:52:34.317Z,77.06
2022-10-14T05:55:09.697Z,76.74
2022-10-14T05:57:42.574Z,76.68
2022-10-14T06:00:14.976Z,76.81
2022-10-14T06:02:48.558Z,77.02
2022-10-14T06:05:19.790Z,76.50
2022-10-14T06:07:49.584Z,76.54
2022-10-14T06:10:19.091Z,76.40
2022-10-14T06:12:50.087Z,76.78
2022-10-14T06:15:19.502Z,77.32
2022-10-14T06:17:48.529Z,76.93
2022-10-14T06:20:17.815Z,76.37
2022-10-14T06:22:47.193Z,75.82
2022-10-14T06:25:16.527Z,76.06
2022-10-14T06:27:45.673Z,75.88
2022-10-14T06:30:16.433Z,76.42
2022-10-14T06:32:45.719Z,76.87
2022-10-14T06:35:14.967Z,76.76
2022-10-14T06:37:46.917Z,76.77
2022-10-14T06:40:16.205Z,76.22
2022-10-14T06:42:45.731Z,76.12
2022-10-14T06:45:16.565Z,75.87
2022-10-14T06:47:45.888Z,75.38
2022-10-14T06:50:15.552Z,75.31
2022-10-14T06:52:47.050Z,75.20
2022-10-14T06:55:18.282Z,73.57
2022-10-14T06:57:47.447Z,73.44
2022-10-14T07:00:19.078Z,72.01
2022-10-14T07:02:48.521Z,71.69
2022-10-14T07:05:18.070Z,70.59
2022-10-14T07:07:47.257Z,69.48
2022-10-14T07:10:16.831Z,69.23
2022-10-14T07:12:46.214Z,69.06
2022-10-14T07:15:15.635Z,68.57
2022-10-14T07:17:46.411Z,67.98
2022-10-14T07:20:15.765Z,67.45
2022-10-14T07:22:45.230Z,67.95
2022-10-14T07:25:14.679Z,68.02
2022-10-14T07:27:43.963Z,69.31
2022-10-14T07:30:17.380Z,69.29
2022-10-14T07:32:48.335Z,68.27
2022-10-14T07:35:19.004Z,67.42
2022-10-14T07:37:48.999Z,66.59
2022-10-14T07:40:18.499Z,66.04
2022-10-14T07:42:47.660Z,66.39
2022-10-14T07:45:18.639Z,66.48
2022-10-14T07:47:51.177Z,66.71
2022-10-14T07:50:21.079Z,66.13
2022-10-14T07:52:50.319Z,66.15
2022-10-14T07:55:19.734Z,66.88
2022-10-14T07:57:48.791Z,65.09
2022-10-14T08:00:18.597Z,65.04
2022-10-14T08:02:49.185Z,64.67
2022-10-14T08:05:37.201Z,63.48
2022-10-14T08:08:08.126Z,63.84
2022-10-14T08:10:37.959Z,63.12
2022-10-14T08:13:07.212Z,62.54
2022-10-14T08:15:40.629Z,64.16
2022-10-14T08:18:12.206Z,64.55
2022-10-14T08:20:41.842Z,63.37
2022-10-14T08:23:16.070Z,62.25
2022-10-14T08:25:50.192Z,61.89
2022-10-14T08:28:19.649Z,62.45
2022-10-14T08:30:49.219Z,61.28
2022-10-14T08:33:20.154Z,60.96
2022-10-14T08:35:53.077Z,61.58
2022-10-14T08:38:25.334Z,60.60
2022-10-14T08:41:04.896Z,59.77
2022-10-14T08:43:37.484Z,59.38
2022-10-14T08:46:12.588Z,58.50
2022-10-14T08:51:31.496Z,59.09
2022-10-14T08:54:08.944Z,57.63
2022-10-14T08:56:39.072Z,56.35
2022-10-14T08:59:14.090Z,54.88
2022-10-14T09:01:52.963Z,57.08
2022-10-14T09:04:23.800Z,54.21
2022-10-14T09:06:54.551Z,55.55
2022-10-14T09:09:27.649Z,54.19
2022-10-14T09:12:01.168Z,52.67
2022-10-14T09:14:35.786Z,54.37
2022-10-14T09:19:49.114Z,51.80
2022-10-14T09:22:18.587Z,53.81
2022-10-14T09:24:48.514Z,52.45
2022-10-14T09:27:21.998Z,51.90
2022-10-14T09:29:55.322Z,50.56
2022-10-14T09:32:30.076Z,50.48
2022-10-14T09:35:02.026Z,50.32
2022-10-14T09:37:33.081Z,50.90
2022-10-14T09:40:07.674Z,49.77
2022-10-14T09:42:45.999Z,48.94
2022-10-14T09:45:16.927Z,50.03
2022-10-14T09:47:52.578Z,50.67
2022-10-14T09:50:31.447Z,47.20
2022-10-14T09:53:04.321Z,47.77
2022-10-14T09:55:35.025Z,47.30
2022-10-14T09:58:07.752Z,44.57
2022-10-14T10:00:39.572Z,46.33
2022-10-14T10:03:12.543Z,44.03
2022-10-14T10:05:45.669Z,44.64
2022-10-14T10:08:19.346Z,43.35
2022-10-14T10:11:03.767Z,44.10
2022-10-14T10:13:44.551Z,45.62
2022-10-14T10:16:23.764Z,44.01
2022-10-14T10:18:55.311Z,42.00
2022-10-14T10:21:30.162Z,39.52
2022-10-14T10:24:01.506Z,37.29
2022-10-14T10:26:33.551Z,35.05
2022-10-14T10:29:05.383Z,35.89
2022-10-14T10:31:57.858Z,37.13
2022-10-14T10:34:52.599Z,40.35
2022-10-14T10:37:28.298Z,47.25
2022-10-14T10:40:11.654Z,43.93
2022-10-14T10:42:51.628Z,45.93
2022-10-14T10:45:36.402Z,46.38
2022-10-14T10:48:09.952Z,46.03
2022-10-14T10:50:47.362Z,47.44
2022-10-14T10:53:42.370Z,47.16
2022-10-14T10:56:25.008Z,44.77
2022-10-14T10:59:10.795Z,46.66
2022-10-14T11:01:51.654Z,46.65
2022-10-14T11:04:46.485Z,47.10
2022-10-14T11:07:40.568Z,48.58
2022-10-14T11:10:39.517Z,50.40
2022-10-14T11:13:29.368Z,48.93
2022-10-14T11:16:12.023Z,46.98
2022-10-14T11:18:48.390Z,48.01
2022-10-14T11:21:27.218Z,49.31
2022-10-14T11:27:05.882Z,38.96
2022-10-14T11:30:15.293Z,41.02
2022-10-14T11:33:05.666Z,42.33
2022-10-14T11:35:48.324Z,42.37
2022-10-14T11:38:30.039Z,45.47
2022-10-14T11:41:07.593Z,46.92
2022-10-14T11:43:46.414Z,48.73
2022-10-14T11:46:20.886Z,49.26
2022-10-14T11:48:53.916Z,49.31
2022-10-14T11:51:33.233Z,51.61
2022-10-14T11:54:11.316Z,51.61
2022-10-14T11:56:46.770Z,51.36
2022-10-14T11:59:43.533Z,52.26
2022-10-14T12:02:40.249Z,53.36
2022-10-14T12:05:19.787Z,52.23
2022-10-14T12:08:03.877Z,52.29
2022-10-14T12:10:38.599Z,52.89
2022-10-14T12:13:15.278Z,50.90
2022-10-14T12:15:50.597Z,51.50
2022-10-14T12:18:20.468Z,53.32
2022-10-14T12:20:57.390Z,52.23
2022-10-14T12:23:34.403Z,52.75
2022-10-14T12:26:12.420Z,52.40
2022-10-14T12:28:43.099Z,53.29
2022-10-14T12:31:34.676Z,53.35
2022-10-14T12:34:34.964Z,53.01
2022-10-14T12:37:43.173Z,52.96
2022-10-14T12:40:28.692Z,52.93
2022-10-14T12:43:05.539Z,50.38
2022-10-14T12:45:36.866Z,42.10
2022-10-14T12:48:16.726Z,44.31
2022-10-14T12:50:47.189Z,46.79
2022-10-14T12:53:25.398Z,48.04
2022-10-14T12:55:58.039Z,50.03
2022-10-14T12:58:31.275Z,48.41
2022-10-14T13:01:04.400Z,46.85
2022-10-14T13:03:41.961Z,43.58
2022-10-14T13:06:39.988Z,39.70
2022-10-14T13:09:36.699Z,35.25
2022-10-14T13:12:44.966Z,33.56
2022-10-14T13:15:52.448Z,34.13
2022-10-14T13:18:53.179Z,33.35
2022-10-14T13:21:50.977Z,33.55
2022-10-14T13:24:27.225Z,35.43
2022-10-14T13:27:24.017Z,37.30
2022-10-14T13:30:01.560Z,39.76
2022-10-14T13:32:39.527Z,41.78
2022-10-14T13:35:18.858Z,40.96
2022-10-14T13:37:58.274Z,35.69
2022-10-14T13:40:34.815Z,33.14
2022-10-14T13:43:14.542Z,32.29
2022-10-14T13:45:48.047Z,32.49
2022-10-14T13:48:21.277Z,33.09
2022-10-14T13:51:02.167Z,33.88
2022-10-14T13:53:52.882Z,34.28
2022-10-14T13:56:24.497Z,34.00
2022-10-14T13:58:58.371Z,34.60
2022-10-14T14:01:33.875Z,33.80
2022-10-14T14:04:04.645Z,34.40
2022-10-14T14:06:45.356Z,33.69
2022-10-14T14:09:27.701Z,33.92
2022-10-14T14:12:00.419Z,34.16
2022-10-14T14:14:36.484Z,35.62
2022-10-14T14:17:07.303Z,34.94
2022-10-14T14:19:38.499Z,36.35
2022-10-14T14:22:18.228Z,37.00
2022-10-14T14:24:49.275Z,35.04
2022-10-14T14:27:21.395Z,39.15
2022-10-14T14:29:53.321Z,39.22
2022-10-14T14:32:26.325Z,40.75
2022-10-14T14:34:56.379Z,38.83
2022-10-14T14:40:22.304Z,41.62
2022-10-14T14:42:55.139Z,39.92
2022-10-14T14:45:27.248Z,39.79
2022-10-14T14:47:58.689Z,42.05
2022-10-14T14:50:31.658Z,44.02
2022-10-14T14:53:05.806Z,43.99
2022-10-14T14:55:41.777Z,44.65
2022-10-14T14:58:27.441Z,44.56
2022-10-14T15:00:57.253Z,47.00
2022-10-14T15:03:28.445Z,47.97
2022-10-14T15:06:00.976Z,47.83
2022-10-14T15:08:33.296Z,49.31
2022-10-14T15:11:03.189Z,51.80
2022-10-14T15:13:45.202Z,53.10
2022-10-14T15:16:14.690Z,52.97
2022-10-14T15:18:43.905Z,53.60
2022-10-14T15:21:19.296Z,55.44
2022-10-14T15:24:03.439Z,56.43
2022-10-14T15:26:36.051Z,57.91
2022-10-14T15:29:18.788Z,59.36
2022-10-14T15:32:04.501Z,59.31
2022-10-14T15:34:35.964Z,60.68
2022-10-14T15:37:05.190Z,61.69
2022-10-14T15:39:36.740Z,62.74
2022-10-14T15:42:13.040Z,63.01
2022-10-14T15:44:42.478Z,64.47
2022-10-14T15:47:22.441Z,64.89
2022-10-14T15:49:52.047Z,65.11
2022-10-14T15:52:24.444Z,65.35
2022-10-14T15:54:59.852Z,66.02
2022-10-14T15:57:29.221Z,66.21
2022-10-14T15:59:58.674Z,67.08
2022-10-14T16:02:33.300Z,67.33
2022-10-14T16:07:52.278Z,67.54
2022-10-14T16:10:28.117Z,67.99
2022-10-14T16:12:59.888Z,68.73
2022-10-14T16:15:35.013Z,69.05
2022-10-14T16:18:04.434Z,69.06
2022-10-14T16:20:34.360Z,69.34
2022-10-14T16:23:04.681Z,69.17
2022-10-14T16:25:39.411Z,69.24
2022-10-14T16:28:10.220Z,71.67
2022-10-14T16:30:44.069Z,70.95
2022-10-14T16:33:13.650Z,70.37
2022-10-14T16:35:43.554Z,70.29
2022-10-14T16:38:13.348Z,71.59
2022-10-14T16:40:44.406Z,70.69
2022-10-14T16:43:15.450Z,71.42
2022-10-14T16:45:44.885Z,70.95
2022-10-14T16:48:16.123Z,71.16
2022-10-14T16:50:49.476Z,71.96
2022-10-14T16:53:36.181Z,71.13
2022-10-14T16:56:28.796Z,72.13
2022-10-14T16:58:58.350Z,71.87
2022-10-14T17:01:28.152Z,72.23
2022-10-14T17:03:58.339Z,72.14
2022-10-14T17:06:28.159Z,72.05
2022-10-14T17:08:57.596Z,72.54
2022-10-14T17:11:29.389Z,72.85
2022-10-14T17:14:01.949Z,72.27
2022-10-14T17:16:32.752Z,73.33
2022-10-14T17:19:02.573Z,73.25
2022-10-14T17:21:31.994Z,72.87
2022-10-14T17:24:02.805Z,74.06
2022-10-14T17:26:35.346Z,74.75
2022-10-14T17:29:04.916Z,73.52
2022-10-14T17:31:34.387Z,74.05
2022-10-14T17:34:04.080Z,74.25
2022-10-14T17:36:33.701Z,74.42
2022-10-14T17:39:02.856Z,74.30
2022-10-14T17:41:33.583Z,74.92
2022-10-14T17:44:03.947Z,73.78
2022-10-14T17:46:34.010Z,74.26
2022-10-14T17:49:05.898Z,74.93
2022-10-14T17:51:35.238Z,75.14
2022-10-14T17:54:07.115Z,74.74
2022-10-14T17:56:39.103Z,74.62
2022-10-14T17:59:12.070Z,74.46
2022-10-14T18:04:32.744Z,74.74
2022-10-14T18:07:02.570Z,74.45
2022-10-14T18:09:31.999Z,75.29
2022-10-14T18:12:08.870Z,74.94
2022-10-14T18:14:40.691Z,74.73
2022-10-14T18:17:12.921Z,74.11
2022-10-14T18:19:45.039Z,74.49
2022-10-14T18:22:18.211Z,74.29
2022-10-14T18:24:47.846Z,74.17
2022-10-14T18:27:18.859Z,72.96
2022-10-14T18:29:48.617Z,73.24
2022-10-14T18:32:18.015Z,74.16
2022-10-14T18:34:47.325Z,74.04
2022-10-14T18:37:16.731Z,74.25
2022-10-14T18:39:45.938Z,74.39
2022-10-14T18:42:18.451Z,74.01
2022-10-14T18:44:51.774Z,74.10
2022-10-14T18:47:21.974Z,74.25
2022-10-14T18:49:51.431Z,74.12
2022-10-14T18:52:21.192Z,74.01
2022-10-14T18:54:50.660Z,74.60
2022-10-14T18:57:21.178Z,74.92
2022-10-14T18:59:53.275Z,74.91
2022-10-14T19:02:23.147Z,74.91
2022-10-14T19:04:52.831Z,74.99
2022-10-14T19:07:22.068Z,75.00
2022-10-14T19:09:54.126Z,74.75
2022-10-14T19:12:44.544Z,75.50
2022-10-14T19:15:15.784Z,74.69
2022-10-14T19:17:45.997Z,75.17
2022-10-14T19:20:16.704Z,75.21
2022-10-14T19:22:45.871Z,75.39
2022-10-14T19:25:16.587Z,76.10
2022-10-14T19:27:46.308Z,76.01
2022-10-14T19:30:17.078Z,77.09
2022-10-14T19:32:46.586Z,76.83
2022-10-14T19:35:16.080Z,75.99
2022-10-14T19:37:45.415Z,75.84
2022-10-14T19:40:17.624Z,77.31
2022-10-14T19:42:47.979Z,77.86
2022-10-14T19:45:18.922Z,78.50
2022-10-14T19:47:48.058Z,78.89
2022-10-14T19:50:17.506Z,76.97
2022-10-14T19:52:46.967Z,79.29
2022-10-14T19:55:16.403Z,77.98
2022-10-14T19:57:45.616Z,77.59
2022-10-14T20:00:17.477Z,77.52
2022-10-14T20:02:46.789Z,77.35
2022-10-14T20:05:17.510Z,78.53
2022-10-14T20:07:47.083Z,76.82
2022-10-14T20:10:16.599Z,77.00
2022-10-14T20:12:46.133Z,77.08
2022-10-14T20:15:15.351Z,77.42
2022-10-14T20:17:46.188Z,77.04
2022-10-14T20:20:23.461Z,77.11
2022-10-14T20:22:52.887Z,76.59
2022-10-14T20:25:22.182Z,76.24
2022-10-14T20:27:51.773Z,75.20
2022-10-14T20:30:21.398Z,75.77
2022-10-14T20:32:53.854Z,75.75
2022-10-14T20:35:23.426Z,77.01
2022-10-14T20:37:52.775Z,76.11
2022-10-14T20:40:21.944Z,76.24
2022-10-14T20:42:51.328Z,76.63
2022-10-14T20:45:20.657Z,77.61
2022-10-14T20:47:53.727Z,77.05
2022-10-14T20:50:23.742Z,76.38
2022-10-14T20:52:52.997Z,76.88
2022-10-14T20:55:22.453Z,76.43
2022-10-14T20:57:51.761Z,76.85
2022-10-14T21:00:21.170Z,76.08
2022-10-14T21:02:52.152Z,76.26
2022-10-14T21:05:21.497Z,75.92
2022-10-14T21:07:50.727Z,76.29
2022-10-14T21:10:20.434Z,76.22
2022-10-14T21:12:49.747Z,76.55
2022-10-14T21:15:19.079Z,76.78
2022-10-14T21:17:52.813Z,76.27
2022-10-14T21:20:22.106Z,77.70
2022-10-14T21:22:51.509Z,76.78
2022-10-14T21:25:20.781Z,76.70
2022-10-14T21:27:50.030Z,76.78
2022-10-14T21:30:19.505Z,76.51
2022-10-14T21:32:48.821Z,76.58
2022-10-14T21:35:19.469Z,75.66
2022-10-14T21:37:48.902Z,75.35
2022-10-14T21:40:18.328Z,75.56
2022-10-14T21:42:47.552Z,76.47
2022-10-14T21:45:16.955Z,76.53
2022-10-14T21:47:46.303Z,76.11
2022-10-14T21:50:15.747Z,77.12
2022-10-14T21:52:46.628Z,77.04
2022-10-14T21:55:16.125Z,76.15
2022-10-14T21:57:45.304Z,76.24
2022-10-14T22:00:15.139Z,75.75
2022-10-14T22:02:44.362Z,76.26
2022-10-14T22:05:13.643Z,76.52
2022-10-14T22:07:43.126Z,75.87
2022-10-14T22:10:27.574Z,76.24
2022-10-14T22:12:58.035Z,75.98
2022-10-14T22:15:27.561Z,76.60
2022-10-14T22:17:56.853Z,76.26
2022-10-14T22:20:26.620Z,76.57
2022-10-14T22:22:57.842Z,76.53
2022-10-14T22:25:28.798Z,76.50
2022-10-14T22:27:57.981Z,76.08
2022-10-14T22:30:27.350Z,75.83
2022-10-14T22:32:56.854Z,75.93
2022-10-14T22:35:26.252Z,76.02
2022-10-14T22:37:55.495Z,75.99
2022-10-14T22:40:25.053Z,76.38
2022-10-14T22:42:56.445Z,75.89
2022-10-14T22:45:25.888Z,76.27
2022-10-14T22:47:55.152Z,76.81
2022-10-14T22:50:24.562Z,76.18
2022-10-14T22:52:53.980Z,75.82
2022-10-14T22:55:23.448Z,76.09
2022-10-14T22:57:54.114Z,75.71
2022-10-14T23:00:23.587Z,75.38
2022-10-14T23:02:52.865Z,75.26
2022-10-14T23:05:22.252Z,75.64
2022-10-14T23:07:51.721Z,75.62
2022-10-14T23:10:20.920Z,75.34
2022-10-14T23:12:50.197Z,75.17
2022-10-14T23:15:21.284Z,74.37
2022-10-14T23:17:50.468Z,75.19
2022-10-14T23:20:19.768Z,75.19
2022-10-14T23:22:49.242Z,75.64
2022-10-14T23:25:18.550Z,75.57
2022-10-14T23:27:47.770Z,75.58
2022-10-14T23:30:19.331Z,75.41
2022-10-14T23:32:48.594Z,75.49
2022-10-14T23:35:17.841Z,75.06
2022-10-14T23:37:47.664Z,75.11
2022-10-14T23:40:17.095Z,75.82
2022-10-14T23:42:46.508Z,75.45
2022-10-14T23:45:16.052Z,75.45
2022-10-14T23:47:46.719Z,75.13
2022-10-14T23:50:16.034Z,75.30
2022-10-14T23:52:45.975Z,75.56
2022-10-14T23:55:15.529Z,76.06
2022-10-14T23:57:44.717Z,76.49
